Time;durP1;ratioP1;P1;durP2;ratioP2;P2;SDS_P1;SDS_P2;PMS_P1;PMS_P2;Temp;Humidity;BMP_temperature;BMP_pressure;BME280_temperature;BME280_humidity;BME280_pressure;Samples;Min_cycle;Max_cycle;Signal;HPM_P1;HPM_P2
2022/10/17 00:00:38;;;;;;;19.88;12.27;;;;;;;10.72;60.08;95918.38;4162333;28;20057;-64
2022/10/17 00:02:40;;;;;;;19.42;12.05;;;;;;;10.68;59.97;95927.44;4164640;28;20053;-61
2022/10/17 00:04:42;;;;;;;18.58;12.77;;;;;;;10.66;60.66;95931.00;4163652;28;20133;-62
2022/10/17 00:06:44;;;;;;;20.38;11.70;;;;;;;10.68;60.46;95930.91;4164351;28;20091;-62
2022/10/17 00:08:45;;;;;;;20.45;12.70;;;;;;;10.63;60.85;95931.28;4164409;28;20084;-63
2022/10/17 00:10:59;;;;;;;16.60;11.32;;;;;;;10.55;60.81;95922.41;4163678;28;20049;-63
2022/10/17 00:13:00;;;;;;;17.98;12.27;;;;;;;10.50;60.97;95928.03;4164001;28;20803;-63
2022/10/17 00:15:04;;;;;;;20.10;12.07;;;;;;;10.46;61.36;95929.25;4164160;28;20541;-63
2022/10/17 00:17:06;;;;;;;20.15;12.05;;;;;;;10.47;61.50;95924.84;4162937;28;20060;-63
2022/10/17 00:19:08;;;;;;;19.88;11.73;;;;;;;10.44;61.80;95931.16;4164331;28;20056;-62
2022/10/17 00:21:17;;;;;;;18.00;11.70;;;;;;;10.39;61.59;95928.09;4163926;28;20157;-62
2022/10/17 00:23:18;;;;;;;18.48;11.10;;;;;;;10.39;61.94;95934.19;4164108;28;20069;-63
2022/10/17 00:25:20;;;;;;;16.90;10.85;;;;;;;10.39;61.67;95930.69;4163825;28;20053;-64
2022/10/17 00:27:22;;;;;;;14.65;10.25;;;;;;;10.35;62.04;95931.94;4162912;28;20570;-64
2022/10/17 00:29:24;;;;;;;20.70;11.88;;;;;;;10.33;61.81;95923.38;4150852;28;20453;-62
2022/10/17 00:31:26;;;;;;;16.77;12.13;;;;;;;10.30;62.13;95928.84;4162309;28;20053;-64
2022/10/17 00:33:28;;;;;;;17.60;11.50;;;;;;;10.31;61.93;95935.78;4164160;28;20061;-62
2022/10/17 00:35:30;;;;;;;20.00;10.98;;;;;;;10.35;61.80;95934.56;4158656;28;20084;-62
2022/10/17 00:37:32;;;;;;;19.85;13.18;;;;;;;10.38;61.57;95935.13;4157501;28;20091;-61
2022/10/17 00:39:34;;;;;;;19.17;12.43;;;;;;;10.41;61.31;95932.25;4163965;28;20056;-62
2022/10/17 00:41:35;;;;;;;18.38;12.70;;;;;;;10.41;61.64;95941.88;4163489;28;20136;-63
2022/10/17 00:43:58;;;;;;;17.85;11.60;;;;;;;10.40;61.30;95946.31;4163655;28;20140;-64
2022/10/17 00:46:00;;;;;;;16.90;11.55;;;;;;;10.40;61.58;95942.84;4157085;28;20491;-61
2022/10/17 00:48:07;;;;;;;19.35;11.85;;;;;;;10.40;61.38;95943.69;4161529;28;20061;-62
2022/10/17 00:50:10;;;;;;;17.23;10.20;;;;;;;10.39;61.08;95943.81;4161095;28;20140;-63
2022/10/17 00:52:24;;;;;;;21.05;11.88;;;;;;;10.30;61.12;95942.78;4161489;28;20484;-62
2022/10/17 00:54:30;;;;;;;23.23;13.65;;;;;;;10.23;61.82;95941.59;4161837;28;20568;-62
2022/10/17 00:56:32;;;;;;;22.38;13.52;;;;;;;10.23;61.82;95938.97;4161908;28;20133;-62
2022/10/17 00:58:34;;;;;;;21.63;13.30;;;;;;;10.22;61.99;95937.34;4163272;28;20140;-62
2022/10/17 01:00:36;;;;;;;18.67;12.50;;;;;;;10.20;61.94;95940.06;4160665;28;20164;-62
2022/10/17 01:02:38;;;;;;;19.85;12.52;;;;;;;10.22;62.04;95943.41;4162785;28;20129;-62
2022/10/17 01:04:41;;;;;;;20.63;12.48;;;;;;;10.24;61.65;95931.00;4163307;28;20140;-61
2022/10/17 01:06:43;;;;;;;18.40;12.52;;;;;;;10.26;62.18;95946.59;4162891;28;20081;-62
2022/10/17 01:08:45;;;;;;;19.70;13.27;;;;;;;10.23;61.67;95945.03;4163332;28;20088;-63
2022/10/17 01:11:02;;;;;;;19.00;12.48;;;;;;;10.18;62.21;95944.59;4161783;28;20644;-61
2022/10/17 01:13:10;;;;;;;17.33;12.73;;;;;;;10.16;62.21;95936.03;4161984;28;20084;-63
2022/10/17 01:15:36;;;;;;;16.02;10.45;;;;;;;10.18;62.11;95941.97;4162029;28;20076;-63
2022/10/17 01:17:56;;;;;;;18.20;11.27;;;;;;;10.12;62.67;95934.63;4163236;28;20076;-62
2022/10/17 01:20:49;;;;;;;19.70;11.85;;;;;;;10.03;62.46;95944.06;4152331;28;20082;-62
2022/10/17 01:23:26;;;;;;;16.55;12.13;;;;;;;10.03;62.52;95944.06;4155981;28;20133;-62
2022/10/17 01:25:53;;;;;;;15.82;11.23;;;;;;;9.95;62.71;95935.16;4160283;28;20063;-63
2022/10/17 01:28:06;;;;;;;17.85;11.88;;;;;;;9.98;62.33;95934.91;4142696;28;20052;-63
2022/10/17 01:30:44;;;;;;;15.23;11.13;;;;;;;10.01;62.70;95939.91;4161801;28;20053;-64
2022/10/17 01:32:53;;;;;;;13.70;10.10;;;;;;;10.02;62.67;95933.72;4130933;28;20063;-63
2022/10/17 01:35:00;;;;;;;16.55;10.98;;;;;;;10.01;62.20;95945.97;4162148;28;20104;-63
2022/10/17 01:37:16;;;;;;;16.15;11.40;;;;;;;10.00;62.05;95944.31;4160636;28;20080;-62
2022/10/17 01:39:39;;;;;;;16.35;11.95;;;;;;;10.02;62.11;95946.78;4161621;28;20053;-62
2022/10/17 01:41:55;;;;;;;14.15;10.32;;;;;;;10.01;62.32;95945.97;4156691;28;20648;-62
2022/10/17 01:44:08;;;;;;;12.80;10.15;;;;;;;9.98;61.99;95945.38;4162443;28;20053;-62
2022/10/17 01:46:44;;;;;;;17.17;11.10;;;;;;;9.93;62.40;95947.56;4160339;28;20494;-63
2022/10/17 01:48:45;;;;;;;14.90;10.93;;;;;;;9.84;62.53;95949.13;4157889;28;20053;-62
2022/10/17 01:50:51;;;;;;;17.92;10.43;;;;;;;9.77;63.04;95945.34;4154105;28;20133;-62
2022/10/17 01:52:58;;;;;;;15.20;11.07;;;;;;;9.68;62.76;95952.16;4161296;28;20077;-62
2022/10/17 01:55:33;;;;;;;17.08;10.73;;;;;;;9.64;63.67;95950.75;4161605;28;20132;-62
2022/10/17 01:57:36;;;;;;;;;;;;;;;9.64;62.92;95946.31;4150000;28;20080;-62
2022/10/17 01:59:42;;;;;;;16.02;12.18;;;;;;;9.63;63.18;95949.06;4150094;28;20283;-61
2022/10/17 02:01:47;;;;;;;15.18;12.43;;;;;;;9.66;63.58;95950.59;4159730;28;20651;-61
2022/10/17 02:03:50;;;;;;;15.93;11.05;;;;;;;9.68;62.88;95944.31;4157647;28;20050;-62
2022/10/17 02:05:52;;;;;;;14.25;10.65;;;;;;;9.69;62.97;95945.97;4148703;28;20053;-63
2022/10/17 02:07:54;;;;;;;14.02;11.07;;;;;;;9.72;62.88;95955.34;4162539;28;20072;-61
2022/10/17 02:09:55;;;;;;;16.63;10.50;;;;;;;9.73;62.85;95957.03;4162319;28;20127;-61
2022/10/17 02:12:34;;;;;;;14.32;11.30;;;;;;;9.70;62.83;95949.41;4161929;28;22032;-62
2022/10/17 02:14:55;;;;;;;14.68;10.32;;;;;;;9.62;62.93;95955.25;4161252;28;20080;-62
2022/10/17 02:17:19;;;;;;;16.60;10.15;;;;;;;9.59;63.49;95952.88;4160268;28;20069;-63
2022/10/17 02:19:24;;;;;;;14.52;10.13;;;;;;;9.56;63.56;95961.81;4150397;28;20048;-61
2022/10/17 02:21:38;;;;;;;13.52;10.18;;;;;;;9.57;62.87;95963.47;4162118;28;20068;-62
2022/10/17 02:23:46;;;;;;;;;;;;;;;9.56;63.12;95960.97;4162879;28;20056;-62
2022/10/17 02:26:04;;;;;;;15.15;10.82;;;;;;;9.48;63.95;95958.13;4161704;28;20317;-62
2022/10/17 02:28:25;;;;;;;15.65;11.05;;;;;;;9.40;63.08;95962.19;4162163;28;20720;-62
2022/10/17 02:30:40;;;;;;;14.68;10.63;;;;;;;9.41;63.70;95961.22;4160404;28;20753;-62
2022/10/17 02:32:48;;;;;;;16.77;10.27;;;;;;;9.24;63.48;95959.09;4162226;28;20056;-63
2022/10/17 02:34:54;;;;;;;20.60;10.63;;;;;;;8.80;64.58;95963.38;4162228;28;20131;-63
2022/10/17 02:36:59;;;;;;;12.93;9.90;;;;;;;8.36;66.85;95972.75;4160543;28;20045;-62
2022/10/17 02:39:02;;;;;;;21.52;15.52;;;;;;;8.27;67.59;95979.47;4149296;28;20080;-62
2022/10/17 02:41:05;;;;;;;14.15;10.32;;;;;;;7.98;67.30;95977.25;4160042;28;20144;-61
2022/10/17 02:43:06;;;;;;;14.30;8.95;;;;;;;7.69;68.29;95978.50;4161795;28;20049;-62
2022/10/17 02:45:08;;;;;;;13.10;10.02;;;;;;;7.59;68.42;95983.53;4159835;28;20055;-61
2022/10/17 02:47:11;;;;;;;15.05;9.65;;;;;;;7.70;69.16;95982.75;4160162;28;20140;-61
2022/10/17 02:49:22;;;;;;;16.63;9.65;;;;;;;7.79;68.07;95982.94;4159267;28;20076;-62
2022/10/17 02:51:26;;;;;;;16.60;9.38;;;;;;;7.96;68.29;95983.53;4160707;28;20133;-63
2022/10/17 02:53:54;;;;;;;12.43;9.27;;;;;;;8.08;67.44;95987.00;4161602;28;20498;-62
2022/10/17 02:56:00;;;;;;;17.45;9.15;;;;;;;8.15;67.15;95986.44;4160193;28;20060;-62
2022/10/17 02:58:06;;;;;;;12.65;8.20;;;;;;;8.21;66.49;95991.19;4160251;28;20132;-62
2022/10/17 03:00:10;;;;;;;13.38;8.90;;;;;;;8.26;66.15;95995.25;4159418;28;20136;-61
2022/10/17 03:02:12;;;;;;;12.50;8.25;;;;;;;8.12;65.50;95989.28;4159949;28;20061;-60
2022/10/17 03:04:14;;;;;;;14.52;8.38;;;;;;;8.06;66.26;96000.16;4160353;28;20120;-65
2022/10/17 03:06:16;;;;;;;17.15;8.88;;;;;;;8.11;65.74;95997.19;4162063;28;20045;-61
2022/10/17 03:08:18;;;;;;;12.45;8.50;;;;;;;8.13;65.56;96001.41;4161368;28;20769;-62
2022/10/17 03:10:21;;;;;;;10.85;7.88;;;;;;;8.16;65.80;95998.53;4161789;28;20132;-61
2022/10/17 03:12:22;;;;;;;11.25;8.05;;;;;;;8.22;65.88;96005.09;4164989;28;20539;-62
2022/10/17 03:14:24;;;;;;;16.70;8.80;;;;;;;8.29;65.41;96001.09;4165220;28;20104;-63
2022/10/17 03:16:26;;;;;;;11.60;8.52;;;;;;;8.33;65.36;96009.53;4163556;28;20148;-63
2022/10/17 03:18:27;;;;;;;10.88;8.48;;;;;;;8.43;65.09;96000.09;4165312;28;20057;-61
2022/10/17 03:20:29;;;;;;;13.45;9.18;;;;;;;8.55;64.50;96001.78;4164942;28;20049;-61
2022/10/17 03:22:31;;;;;;;11.80;8.25;;;;;;;8.61;64.33;96001.34;4164938;28;20080;-63
2022/10/17 03:24:33;;;;;;;13.80;9.13;;;;;;;8.65;63.97;96004.56;4151449;28;20579;-63
2022/10/17 03:26:35;;;;;;;15.27;9.05;;;;;;;8.69;63.96;95997.31;4164718;28;20084;-61
2022/10/17 03:28:37;;;;;;;15.68;8.98;;;;;;;8.70;63.57;95999.00;4164941;28;20065;-62
2022/10/17 03:30:38;;;;;;;14.75;9.60;;;;;;;8.75;63.87;96004.69;4162640;28;20131;-64
2022/10/17 03:32:40;;;;;;;13.80;8.60;;;;;;;8.76;63.88;96006.38;4164715;28;20069;-63
2022/10/17 03:34:42;;;;;;;13.07;8.55;;;;;;;8.78;64.04;96001.84;4164771;28;20243;-61
2022/10/17 03:36:44;;;;;;;14.20;8.95;;;;;;;8.84;64.18;96000.53;4164079;28;20046;-62
2022/10/17 03:38:47;;;;;;;15.80;9.80;;;;;;;8.90;63.29;96002.69;4161608;28;20053;-62
2022/10/17 03:40:55;;;;;;;13.35;8.77;;;;;;;8.90;63.59;96006.13;4164142;28;20112;-63
2022/10/17 03:42:57;;;;;;;15.50;9.10;;;;;;;8.91;62.91;96007.81;4164841;28;20057;-62
2022/10/17 03:44:58;;;;;;;14.38;9.75;;;;;;;8.90;63.65;96006.13;4164640;28;20133;-62
2022/10/17 03:47:00;;;;;;;14.02;9.30;;;;;;;8.89;62.88;96004.47;4162812;28;20049;-62
2022/10/17 03:49:02;;;;;;;15.25;9.82;;;;;;;8.87;62.98;96013.41;4160457;28;20057;-64
2022/10/17 03:51:06;;;;;;;21.08;9.35;;;;;;;8.84;63.20;96011.00;4163845;28;20056;-64
2022/10/17 03:53:08;;;;;;;16.35;9.38;;;;;;;8.84;63.73;96011.84;4164432;28;20052;-63
2022/10/17 03:55:10;;;;;;;14.07;9.35;;;;;;;8.86;63.85;96009.09;4163903;28;20144;-62
2022/10/17 03:57:11;;;;;;;18.63;10.63;;;;;;;8.82;63.19;96018.97;4164521;28;20092;-63
2022/10/17 03:59:14;;;;;;;12.82;9.30;;;;;;;8.81;64.18;96022.53;4164705;28;20103;-63
2022/10/17 04:01:17;;;;;;;14.48;9.80;;;;;;;8.83;64.32;96023.25;4162709;28;20068;-61
2022/10/17 04:03:19;;;;;;;20.40;10.95;;;;;;;8.84;63.31;96019.69;4164262;28;20042;-62
2022/10/17 04:05:21;;;;;;;16.75;11.40;;;;;;;8.85;63.29;96012.69;4153764;28;20160;-64
2022/10/17 04:07:22;;;;;;;13.52;10.80;;;;;;;8.85;63.59;96012.69;4162947;28;20056;-62
2022/10/17 04:09:24;;;;;;;17.45;10.88;;;;;;;8.83;63.54;96020.63;4164347;28;20152;-62
2022/10/17 04:11:26;;;;;;;18.40;10.93;;;;;;;8.84;63.23;96024.06;4163955;28;20085;-64
2022/10/17 04:13:28;;;;;;;14.98;10.73;;;;;;;8.84;63.84;96022.31;4164536;28;20049;-63
2022/10/17 04:15:29;;;;;;;14.05;9.93;;;;;;;8.85;63.93;96023.97;4162688;28;20136;-63
2022/10/17 04:17:31;;;;;;;21.30;10.70;;;;;;;8.88;63.24;96028.13;4164331;28;20459;-63
2022/10/17 04:19:38;;;;;;;21.10;10.23;;;;;;;8.85;63.15;96025.75;4164025;28;20685;-64
2022/10/17 04:21:40;;;;;;;15.60;10.43;;;;;;;8.89;63.39;96024.56;4163556;28;20402;-64
2022/10/17 04:23:42;;;;;;;14.10;10.70;;;;;;;8.86;63.46;96030.00;4164150;28;20049;-62
2022/10/17 04:25:44;;;;;;;17.38;10.70;;;;;;;8.87;63.47;96032.50;4163908;28;20468;-63
2022/10/17 04:27:45;;;;;;;14.48;9.73;;;;;;;8.90;63.45;96032.28;4163729;28;20136;-62
2022/10/17 04:29:47;;;;;;;16.98;10.15;;;;;;;8.90;63.32;96029.66;4164044;28;20049;-62
2022/10/17 04:31:50;;;;;;;17.85;10.02;;;;;;;8.87;63.34;96022.06;4162607;28;20207;-63
2022/10/17 04:33:52;;;;;;;20.00;10.38;;;;;;;8.84;63.70;96029.28;4163934;28;20065;-63
2022/10/17 04:35:58;;;;;;;19.85;10.98;;;;;;;8.78;64.26;96036.66;4160948;28;20132;-63
2022/10/17 04:38:00;;;;;;;18.70;11.40;;;;;;;8.79;63.93;96033.06;4163935;28;20124;-63
2022/10/17 04:40:01;;;;;;;16.38;11.43;;;;;;;8.76;63.36;96033.31;4164053;28;20136;-62
2022/10/17 04:42:03;;;;;;;20.15;12.07;;;;;;;8.47;64.19;96040.69;4162653;28;20053;-64
2022/10/17 04:44:05;;;;;;;21.85;12.05;;;;;;;8.18;64.79;96041.03;4151393;28;20149;-63
2022/10/17 04:46:11;;;;;;;22.85;13.27;;;;;;;8.01;65.98;96038.81;4162338;28;20049;-65
2022/10/17 04:48:13;;;;;;;24.58;13.30;;;;;;;7.90;65.58;96042.19;4163962;28;20073;-64
2022/10/17 04:50:15;;;;;;;21.55;13.02;;;;;;;7.67;66.26;96041.22;4156133;28;20388;-64
2022/10/17 04:52:16;;;;;;;28.98;12.73;;;;;;;7.42;67.31;96043.88;4163031;28;20073;-62
2022/10/17 04:54:18;;;;;;;21.58;13.60;;;;;;;6.99;68.96;96055.47;4163154;28;20072;-63
2022/10/17 04:56:21;;;;;;;31.45;15.70;;;;;;;6.87;69.08;96057.13;4161956;28;20049;-62
2022/10/17 04:58:23;;;;;;;23.75;15.73;;;;;;;6.64;69.87;96056.03;4163107;28;20676;-63
2022/10/17 05:00:25;;;;;;;22.35;13.93;;;;;;;6.52;70.43;96056.88;4161859;28;20136;-63
2022/10/17 05:02:27;;;;;;;24.75;14.05;;;;;;;6.73;70.28;96057.19;4163597;28;20140;-61
2022/10/17 05:04:29;;;;;;;25.92;15.57;;;;;;;6.86;69.28;96050.25;4163509;28;20118;-62
2022/10/17 05:06:31;;;;;;;28.30;15.57;;;;;;;7.04;69.29;96060.38;4162821;28;20053;-64
2022/10/17 05:08:34;;;;;;;23.33;14.38;;;;;;;7.24;68.52;96059.84;4162889;28;20073;-62
2022/10/17 05:10:45;;;;;;;28.05;14.77;;;;;;;7.44;67.45;96060.22;4161950;28;20053;-63
2022/10/17 05:12:47;;;;;;;19.02;12.82;;;;;;;7.67;67.05;96056.03;4163369;28;20084;-64
2022/10/17 05:14:49;;;;;;;35.47;14.60;;;;;;;7.88;67.27;96062.34;4161778;28;20529;-63
2022/10/17 05:16:50;;;;;;;19.50;12.60;;;;;;;8.10;66.56;96060.81;4161614;28;20132;-64
2022/10/17 05:18:54;;;;;;;28.98;14.30;;;;;;;8.28;66.07;96067.31;4163255;28;20137;-62
2022/10/17 05:20:56;;;;;;;27.67;14.38;;;;;;;8.42;64.91;96068.94;4162417;28;20085;-63
2022/10/17 05:22:58;;;;;;;26.58;13.60;;;;;;;8.50;64.68;96071.00;4161843;28;20128;-64
2022/10/17 05:25:00;;;;;;;25.92;14.30;;;;;;;8.58;63.69;96073.88;4152137;28;20601;-63
2022/10/17 05:27:02;;;;;;;25.23;14.18;;;;;;;8.50;63.01;96074.44;4163021;28;20160;-63
2022/10/17 05:29:04;;;;;;;28.48;14.85;;;;;;;8.51;64.27;96072.66;4163297;28;20502;-64
2022/10/17 05:31:07;;;;;;;26.50;14.35;;;;;;;8.60;63.41;96075.44;4161279;28;20111;-65
2022/10/17 05:33:09;;;;;;;24.45;15.38;;;;;;;8.71;63.00;96079.88;4161858;28;20053;-65
2022/10/17 05:35:10;;;;;;;28.55;14.93;;;;;;;8.80;62.62;96083.59;4162585;28;20514;-63
2022/10/17 05:37:12;;;;;;;28.60;16.25;;;;;;;8.90;62.14;96089.75;4160779;28;20053;-65
2022/10/17 05:39:18;;;;;;;20.80;14.63;;;;;;;8.98;62.35;96090.03;4163047;28;20791;-66
2022/10/17 05:41:20;;;;;;;31.98;16.13;;;;;;;9.07;61.62;96085.06;4154296;28;20045;-62
2022/10/17 05:43:22;;;;;;;26.08;14.35;;;;;;;9.10;61.70;96084.81;4162237;28;20129;-63
2022/10/17 05:45:23;;;;;;;23.67;14.23;;;;;;;9.15;62.21;96094.00;4160223;28;20068;-65
2022/10/17 05:47:25;;;;;;;27.08;16.05;;;;;;;9.17;61.56;96091.28;4162199;28;20077;-63
2022/10/17 05:49:27;;;;;;;27.92;16.23;;;;;;;9.10;61.60;96087.44;4162728;28;20061;-64
2022/10/17 05:51:45;;;;;;;22.02;15.23;;;;;;;9.18;61.17;96092.91;4152977;28;20049;-64
2022/10/17 05:53:46;;;;;;;24.50;16.20;;;;;;;9.16;61.57;96095.69;4162754;28;20502;-64
2022/10/17 05:55:58;;;;;;;21.10;14.77;;;;;;;9.14;61.61;96096.72;4162575;28;20641;-63
2022/10/17 05:58:00;;;;;;;21.05;14.73;;;;;;;9.19;61.17;96100.66;4162655;28;20481;-62
2022/10/17 06:00:03;;;;;;;21.92;14.38;;;;;;;9.31;61.02;96105.91;4162141;28;20115;-62
2022/10/17 06:02:05;;;;;;;25.23;15.68;;;;;;;9.42;61.28;96106.75;4161267;28;20073;-62
2022/10/17 06:04:07;;;;;;;28.05;17.13;;;;;;;9.13;61.42;96103.72;4156298;28;20511;-65
2022/10/17 06:06:10;;;;;;;33.55;18.23;;;;;;;8.89;62.30;96113.41;4158614;28;20453;-65
2022/10/17 06:08:12;;;;;;;26.85;17.80;;;;;;;8.57;63.50;96117.44;4162123;28;20062;-63
2022/10/17 06:10:15;;;;;;;31.60;19.17;;;;;;;8.44;63.81;96121.91;4162314;28;20132;-63
2022/10/17 06:12:17;;;;;;;37.70;20.85;;;;;;;8.57;64.02;96122.66;4161810;28;20655;-65
2022/10/17 06:14:19;;;;;;;32.83;19.08;;;;;;;8.77;63.12;96109.91;4162285;28;20144;-62
2022/10/17 06:16:21;;;;;;;41.63;18.92;;;;;;;8.61;63.21;96116.28;4160244;28;20059;-64
2022/10/17 06:18:23;;;;;;;27.52;18.15;;;;;;;8.82;63.17;96119.09;4162373;28;20143;-65
2022/10/17 06:20:24;;;;;;;29.85;15.98;;;;;;;8.74;62.95;96118.00;4162204;28;20533;-64
2022/10/17 06:22:26;;;;;;;32.40;16.98;;;;;;;8.61;62.94;96120.69;4162145;28;20084;-63
2022/10/17 06:24:28;;;;;;;27.15;17.85;;;;;;;8.45;63.92;96123.56;4162273;28;20046;-63
2022/10/17 06:26:30;;;;;;;23.92;16.90;;;;;;;8.60;64.50;96130.28;4161878;28;20057;-63
2022/10/17 06:28:32;;;;;;;29.08;17.40;;;;;;;8.80;63.04;96131.44;4162305;28;20077;-65
2022/10/17 06:30:34;;;;;;;26.67;16.08;;;;;;;8.87;63.15;96133.59;4160254;28;20167;-64
2022/10/17 06:32:35;;;;;;;25.13;16.25;;;;;;;9.02;62.69;96140.31;4162084;28;20061;-66
2022/10/17 06:34:37;;;;;;;23.90;16.73;;;;;;;9.19;62.56;96141.66;4162215;28;20136;-67
2022/10/17 06:36:39;;;;;;;23.92;15.65;;;;;;;9.17;62.28;96146.19;4160692;28;20510;-67
2022/10/17 06:38:40;;;;;;;22.98;15.75;;;;;;;9.35;62.29;96142.16;4162148;28;20144;-64
2022/10/17 06:40:42;;;;;;;26.13;15.35;;;;;;;9.53;61.98;96142.56;4161305;28;20045;-64
2022/10/17 06:42:44;;;;;;;29.05;16.70;;;;;;;9.43;60.92;96150.25;4162002;28;20049;-65
2022/10/17 06:44:45;;;;;;;32.13;19.02;;;;;;;9.52;61.85;96153.13;4162264;28;20041;-66
2022/10/17 06:46:47;;;;;;;34.72;19.63;;;;;;;9.59;61.53;96147.34;4160417;28;20136;-66
2022/10/17 06:48:49;;;;;;;31.40;18.02;;;;;;;9.67;61.27;96144.09;4160948;28;20140;-66
2022/10/17 06:50:50;;;;;;;28.05;17.85;;;;;;;9.84;61.07;96151.50;4161489;28;20128;-65
2022/10/17 06:52:52;;;;;;;32.08;18.10;;;;;;;10.04;60.25;96149.97;4158760;28;20105;-64
2022/10/17 06:54:53;;;;;;;29.20;16.48;;;;;;;10.24;59.87;96147.56;4160233;28;20088;-65
2022/10/17 06:56:55;;;;;;;29.25;16.45;;;;;;;10.40;59.41;96150.63;4159358;28;20103;-65
2022/10/17 06:58:57;;;;;;;25.35;15.95;;;;;;;10.53;58.78;96149.66;4162079;28;20620;-63
2022/10/17 07:01:12;;;;;;;29.08;16.77;;;;;;;10.61;58.57;96148.09;4160262;28;20144;-64
2022/10/17 07:03:14;;;;;;;26.05;14.98;;;;;;;10.69;58.50;96146.63;4161905;28;20136;-63
2022/10/17 07:05:16;;;;;;;27.65;16.33;;;;;;;10.75;58.05;96148.75;4161973;28;20144;-63
2022/10/17 07:07:17;;;;;;;28.60;15.80;;;;;;;10.46;58.85;96151.94;4160552;28;20045;-64
2022/10/17 07:09:19;;;;;;;26.75;15.25;;;;;;;10.37;59.11;96148.28;4161836;28;20084;-63
2022/10/17 07:11:21;;;;;;;24.77;16.45;;;;;;;10.47;59.48;96153.59;4161709;28;20041;-66
2022/10/17 07:13:24;;;;;;;25.88;16.08;;;;;;;10.66;58.98;96150.34;4161890;28;20046;-64
2022/10/17 07:15:26;;;;;;;25.83;14.90;;;;;;;10.84;58.44;96138.38;4160140;28;20055;-64
2022/10/17 07:17:29;;;;;;;25.10;16.15;;;;;;;10.80;58.55;96144.00;4161841;28;20148;-66
2022/10/17 07:19:31;;;;;;;36.13;14.38;;;;;;;10.91;58.67;96141.31;4162006;28;20052;-66
2022/10/17 07:21:32;;;;;;;18.58;13.13;;;;;;;11.04;58.22;96138.53;4161604;28;20057;-66
2022/10/17 07:23:40;;;;;;;21.98;13.80;;;;;;;11.13;58.02;96147.41;4158176;28;20096;-65
2022/10/17 07:25:41;;;;;;;33.65;22.33;;;;;;;11.24;57.72;96148.19;4158374;28;20053;-64
2022/10/17 07:27:43;;;;;;;23.98;15.07;;;;;;;11.43;57.67;96144.84;4156404;28;20087;-66
2022/10/17 07:29:45;;;;;;;33.13;15.38;;;;;;;11.63;57.15;96145.78;4161853;28;20073;-65
2022/10/17 07:31:47;;;;;;;22.50;13.35;;;;;;;11.78;56.42;96146.28;4160278;28;20065;-66
2022/10/17 07:33:49;;;;;;;21.60;13.82;;;;;;;11.75;55.85;96143.94;4161813;28;20084;-64
2022/10/17 07:35:52;;;;;;;16.83;12.25;;;;;;;11.47;55.93;96151.50;4160576;28;20472;-66
2022/10/17 07:37:53;;;;;;;19.88;13.02;;;;;;;11.48;56.66;96150.53;4161336;28;20141;-64
2022/10/17 07:39:55;;;;;;;23.15;13.50;;;;;;;11.67;56.58;96152.44;4161014;28;20046;-63
2022/10/17 07:41:57;;;;;;;20.92;12.50;;;;;;;11.80;55.91;96149.59;4160947;28;20045;-64
2022/10/17 07:43:59;;;;;;;21.98;12.85;;;;;;;11.91;55.75;96153.16;4161086;28;20081;-66
2022/10/17 07:46:02;;;;;;;21.05;13.05;;;;;;;12.05;55.72;96158.88;4159997;28;20133;-66
2022/10/17 07:48:04;;;;;;;20.55;12.38;;;;;;;12.07;54.98;96156.97;4156920;28;20061;-63
2022/10/17 07:50:06;;;;;;;22.67;12.65;;;;;;;11.86;55.25;96154.34;4161704;28;20418;-64
2022/10/17 07:52:10;;;;;;;17.60;11.98;;;;;;;12.06;55.52;96162.31;4160994;28;20088;-64
2022/10/17 07:54:12;;;;;;;20.58;12.77;;;;;;;12.23;55.21;96164.31;4155158;28;20057;-68
2022/10/17 07:56:14;;;;;;;20.48;12.43;;;;;;;12.26;54.48;96153.56;4161493;28;20128;-63
2022/10/17 07:58:16;;;;;;;20.83;12.15;;;;;;;12.31;54.30;96147.09;4163219;28;20610;-63
2022/10/17 08:00:18;;;;;;;20.10;12.35;;;;;;;12.43;54.63;96144.22;4162920;28;20077;-65
2022/10/17 08:02:22;;;;;;;22.58;12.95;;;;;;;12.66;54.23;96159.72;4164902;28;20136;-63
2022/10/17 08:04:25;;;;;;;20.73;12.43;;;;;;;12.80;53.63;96151.47;4156283;28;20049;-66
2022/10/17 08:06:26;;;;;;;22.63;12.05;;;;;;;12.93;52.92;96156.44;4160699;28;20399;-65
2022/10/17 08:08:28;;;;;;;24.40;17.67;;;;;;;13.06;53.11;96146.47;4152574;28;20053;-64
2022/10/17 08:10:30;;;;;;;22.30;15.80;;;;;;;13.23;52.71;96147.59;4156789;28;20144;-65
2022/10/17 08:12:33;;;;;;;25.42;13.50;;;;;;;13.42;52.44;96146.78;4159149;28;20080;-63
2022/10/17 08:14:34;;;;;;;28.55;13.95;;;;;;;13.60;51.33;96143.41;4152816;28;20533;-63
2022/10/17 08:16:36;;;;;;;22.25;13.95;;;;;;;13.64;51.09;96145.59;4162707;28;20065;-66
2022/10/17 08:18:39;;;;;;;30.27;17.90;;;;;;;13.72;50.88;96140.47;4164446;28;20045;-64
2022/10/17 08:20:41;;;;;;;32.25;17.25;;;;;;;13.39;51.30;96146.22;4164221;28;20132;-64
2022/10/17 08:22:50;;;;;;;25.83;17.05;;;;;;;13.38;51.27;96136.63;4164112;28;20601;-65
2022/10/17 08:24:52;;;;;;;34.67;16.48;;;;;;;13.45;51.83;96133.31;4164455;28;20609;-65
2022/10/17 08:26:55;;;;;;;26.13;15.57;;;;;;;13.51;51.63;96137.19;4164172;28;20080;-63
2022/10/17 08:28:56;;;;;;;30.05;16.42;;;;;;;13.48;50.97;96127.75;4164117;28;20085;-63
2022/10/17 08:31:07;;;;;;;28.63;16.27;;;;;;;13.39;51.37;96125.97;4162381;28;20045;-66
2022/10/17 08:33:08;;;;;;;25.63;15.98;;;;;;;13.25;52.08;96135.13;4164504;28;20046;-64
2022/10/17 08:35:10;;;;;;;28.52;16.13;;;;;;;13.26;51.65;96142.03;4163485;28;20050;-64
2022/10/17 08:37:12;;;;;;;27.05;17.17;;;;;;;13.35;51.54;96137.75;4163101;28;20072;-63
2022/10/17 08:39:14;;;;;;;28.25;17.38;;;;;;;13.44;51.13;96128.19;4162683;28;20053;-64
2022/10/17 08:41:48;;;;;;;38.17;16.70;;;;;;;13.47;50.53;96131.38;4163383;28;20100;-69
2022/10/17 08:44:19;;;;;;;23.73;15.57;;;;;;;13.82;49.99;96127.25;4164009;28;20406;-65
2022/10/17 08:46:21;;;;;;;21.80;15.57;;;;;;;13.66;50.16;96134.94;4162238;28;20053;-66
2022/10/17 08:48:25;;;;;;;22.67;14.90;;;;;;;13.49;50.11;96132.06;4163760;28;20087;-64
2022/10/17 08:50:38;;;;;;;26.27;15.27;;;;;;;13.72;49.70;96131.72;4161829;28;20065;-67
2022/10/17 08:52:49;;;;;;;25.70;15.73;;;;;;;13.83;49.85;96128.06;4160867;28;20482;-67
2022/10/17 08:54:51;;;;;;;26.77;16.55;;;;;;;14.09;48.90;96136.16;4151449;28;20592;-62
2022/10/17 08:56:54;;;;;;;24.55;15.85;;;;;;;14.39;48.88;96135.06;4158871;28;20168;-66
2022/10/17 08:58:56;;;;;;;27.02;17.00;;;;;;;14.61;48.09;96131.19;4162801;28;20053;-64
2022/10/17 09:01:28;;;;;;;28.20;18.02;;;;;;;14.56;47.56;96133.44;4160823;28;20220;-65
2022/10/17 09:04:17;;;;;;;30.08;17.45;;;;;;;14.38;47.75;96141.28;4150871;28;20406;-66
2022/10/17 09:06:24;;;;;;;27.63;15.05;;;;;;;14.48;47.32;96134.16;4162333;28;20087;-66
2022/10/17 09:08:57;;;;;;;26.88;13.73;;;;;;;14.51;46.34;96139.13;4160160;28;20380;-63
2022/10/17 09:11:05;;;;;;;24.05;14.15;;;;;;;14.85;46.11;96129.78;4162804;28;20088;-63
2022/10/17 09:13:18;;;;;;;24.15;15.00;;;;;;;14.84;45.28;96117.56;4163571;28;20050;-67
2022/10/17 09:15:45;;;;;;;26.65;13.60;;;;;;;14.99;44.20;96126.59;4162023;28;20406;-66
2022/10/17 09:17:59;;;;;;;21.50;14.73;;;;;;;14.87;44.99;96128.66;4162121;28;20111;-67
2022/10/17 09:20:15;;;;;;;26.17;13.02;;;;;;;14.65;44.59;96129.09;4163345;28;20045;-66
2022/10/17 09:22:23;;;;;;;23.08;13.02;;;;;;;15.06;44.34;96127.66;4162026;28;20048;-67
2022/10/17 09:24:50;;;;;;;17.20;11.13;;;;;;;15.49;43.00;96122.56;4161575;28;20394;-64
2022/10/17 09:26:52;;;;;;;16.85;10.18;;;;;;;15.48;41.76;96121.72;4162722;28;20453;-67
2022/10/17 09:28:58;;;;;;;12.25;9.15;;;;;;;15.61;40.61;96126.59;4162609;28;20332;-65
2022/10/17 09:31:03;;;;;;;14.90;9.20;;;;;;;15.86;40.82;96124.97;4159757;28;20464;-66
2022/10/17 09:33:16;;;;;;;16.90;10.20;;;;;;;16.14;40.36;96124.75;4163185;28;20409;-67
2022/10/17 09:35:40;;;;;;;15.80;10.23;;;;;;;16.47;40.56;96119.59;4162013;28;20132;-67
2022/10/17 09:37:43;;;;;;;18.45;10.27;;;;;;;16.20;40.16;96126.78;4161585;28;20670;-67
2022/10/17 09:39:45;;;;;;;14.32;9.20;;;;;;;16.47;39.97;96119.59;4163169;28;20092;-68
2022/10/17 09:41:57;;;;;;;15.95;9.50;;;;;;;16.32;38.45;96114.91;4162645;28;20137;-65
2022/10/17 09:44:18;;;;;;;11.90;8.43;;;;;;;16.18;38.50;96112.88;4161253;28;20140;-67